Open Full Screen Window  High Contrast Mode
July 03, 2015 2:45 AM CDT
Weather Information
Wind Direction
  ---
Wind Speed
  00 kt (0 mph)
Wind Gust
  00 kt (0 mph)
Altimeter
30.02 in
Visibility
10 SM
Temperature
13° C
55° F
Dewpoint
13° C
55° F
Humidity
100%
1hr Rain Fall
00.00 in.
24hr Rain Fall
00.00 in.
Sky Condition
Clear
VFR

METAR KMDS 030745Z AUTO 00000KT 10SM CLR 13/13 A3002 RMK AO2

*Background is not an actual portrayal of the airport.